createdAt,value
2017-08-16T00:01:13.256Z,73.52
2017-08-16T00:03:41.611Z,73.17
2017-08-16T00:06:09.980Z,74.15
2017-08-16T00:08:38.843Z,74.07
2017-08-16T00:11:07.211Z,74.60
2017-08-16T00:13:35.562Z,74.05
2017-08-16T00:16:04.246Z,73.48
2017-08-16T00:18:32.647Z,72.62
2017-08-16T00:21:00.986Z,72.78
2017-08-16T00:23:30.628Z,72.63
2017-08-16T00:25:59.007Z,73.33
2017-08-16T00:28:27.375Z,73.77
2017-08-16T00:30:56.274Z,72.96
2017-08-16T00:33:24.644Z,73.11
2017-08-16T00:35:53.052Z,73.12
2017-08-16T00:38:21.928Z,73.40
2017-08-16T00:40:50.295Z,73.91
2017-08-16T00:43:18.676Z,74.05
2017-08-16T00:45:47.598Z,74.53
2017-08-16T00:48:15.975Z,75.13
2017-08-16T00:50:44.330Z,75.36
2017-08-16T00:53:13.038Z,76.20
2017-08-16T00:55:41.397Z,76.13
2017-08-16T00:58:09.742Z,77.15
2017-08-16T01:00:38.479Z,77.09
2017-08-16T01:03:06.851Z,77.14
2017-08-16T01:05:35.207Z,77.31
2017-08-16T01:08:04.130Z,79.07
2017-08-16T01:10:32.506Z,78.71
2017-08-16T01:13:00.863Z,78.14
2017-08-16T01:15:29.509Z,77.86
2017-08-16T01:17:57.865Z,77.98
2017-08-16T01:20:26.247Z,79.06
2017-08-16T01:22:55.032Z,78.21
2017-08-16T01:25:23.435Z,77.13
2017-08-16T01:27:51.800Z,76.82
2017-08-16T01:30:20.745Z,76.40
2017-08-16T01:32:49.882Z,77.51
2017-08-16T01:35:18.283Z,78.15
2017-08-16T01:37:47.130Z,77.89
2017-08-16T01:40:15.461Z,76.94
2017-08-16T01:42:43.798Z,77.86
2017-08-16T01:45:12.807Z,79.00
2017-08-16T01:47:41.173Z,77.68
2017-08-16T01:50:09.534Z,78.07
2017-08-16T01:52:38.368Z,78.32
2017-08-16T01:55:06.737Z,78.05
2017-08-16T01:57:35.074Z,78.45
2017-08-16T02:00:03.862Z,77.95
2017-08-16T02:02:32.185Z,78.12
2017-08-16T02:05:00.495Z,77.24
2017-08-16T02:07:30.098Z,76.80
2017-08-16T02:09:58.446Z,76.93
2017-08-16T02:12:26.802Z,76.53
2017-08-16T02:14:55.574Z,75.91
2017-08-16T02:17:23.888Z,76.09
2017-08-16T02:19:52.211Z,75.69
2017-08-16T02:22:21.838Z,75.66
2017-08-16T02:24:50.189Z,75.41
2017-08-16T02:27:18.534Z,75.48
2017-08-16T02:29:47.310Z,76.42
2017-08-16T02:32:15.675Z,76.48
2017-08-16T02:34:44.027Z,75.91
2017-08-16T02:37:12.959Z,75.71
2017-08-16T02:39:41.322Z,75.53
2017-08-16T02:42:09.714Z,75.38
2017-08-16T02:44:39.405Z,74.82
2017-08-16T02:47:07.766Z,74.98
2017-08-16T02:49:36.897Z,75.11
2017-08-16T02:52:05.888Z,75.20
2017-08-16T02:54:34.237Z,74.62
2017-08-16T02:57:03.369Z,73.84
2017-08-16T02:59:32.326Z,74.86
2017-08-16T03:02:00.689Z,74.22
2017-08-16T03:04:29.039Z,73.84
2017-08-16T03:06:57.850Z,74.02
2017-08-16T03:09:26.208Z,74.49
2017-08-16T03:11:54.593Z,74.71
2017-08-16T03:14:23.440Z,74.78
2017-08-16T03:16:51.824Z,74.47
2017-08-16T03:19:20.294Z,74.33
2017-08-16T03:21:49.910Z,74.02
2017-08-16T03:24:18.250Z,74.13
2017-08-16T03:26:46.623Z,74.77
2017-08-16T03:29:15.556Z,74.58
2017-08-16T03:31:44.388Z,74.29
2017-08-16T03:34:13.351Z,74.83
2017-08-16T03:36:42.463Z,74.82
2017-08-16T03:39:10.828Z,74.52
2017-08-16T03:41:39.195Z,74.73
2017-08-16T03:44:08.124Z,74.78
2017-08-16T03:46:36.479Z,75.16
2017-08-16T03:49:04.845Z,74.63
2017-08-16T03:51:33.502Z,74.35
2017-08-16T03:54:01.877Z,74.13
2017-08-16T03:56:30.252Z,74.54
2017-08-16T03:58:59.179Z,74.75
2017-08-16T04:01:27.532Z,74.49
2017-08-16T04:03:55.886Z,74.17
2017-08-16T04:06:24.696Z,73.98
2017-08-16T04:08:53.059Z,73.56
2017-08-16T04:11:21.433Z,73.32
2017-08-16T04:13:50.195Z,72.98
2017-08-16T04:16:18.559Z,73.51
2017-08-16T04:18:46.940Z,73.42
2017-08-16T04:21:15.624Z,73.67
2017-08-16T04:23:44.288Z,73.52
2017-08-16T04:26:13.422Z,74.04
2017-08-16T04:28:42.262Z,74.27
2017-08-16T04:31:10.639Z,74.57
2017-08-16T04:33:39.029Z,74.85
2017-08-16T04:38:42.211Z,75.34
2017-08-16T04:41:11.159Z,75.83
2017-08-16T04:43:39.538Z,75.00
2017-08-16T04:46:07.904Z,74.55
2017-08-16T04:48:36.781Z,74.77
2017-08-16T04:51:05.157Z,74.45
2017-08-16T04:53:34.304Z,74.25
2017-08-16T04:56:02.995Z,74.08
2017-08-16T04:58:31.368Z,74.08
2017-08-16T05:00:59.743Z,73.96
2017-08-16T05:03:28.382Z,73.43
2017-08-16T05:05:56.737Z,73.32
2017-08-16T05:08:25.104Z,74.39
2017-08-16T05:10:53.996Z,74.33
2017-08-16T05:13:22.375Z,74.39
2017-08-16T05:15:50.794Z,74.18
2017-08-16T05:18:19.627Z,73.88
2017-08-16T05:20:47.997Z,74.19
2017-08-16T05:23:16.410Z,73.97
2017-08-16T05:25:45.276Z,73.67
2017-08-16T05:28:13.677Z,73.63
2017-08-16T05:30:42.109Z,73.76
2017-08-16T05:33:10.922Z,74.91
2017-08-16T05:35:39.299Z,74.34
2017-08-16T05:38:07.651Z,74.11
2017-08-16T05:40:36.522Z,73.79
2017-08-16T05:43:04.882Z,73.07
2017-08-16T05:45:33.281Z,72.74
2017-08-16T05:48:02.189Z,72.69
2017-08-16T05:50:30.606Z,72.54
2017-08-16T05:52:58.978Z,72.39
2017-08-16T05:55:27.672Z,72.62
2017-08-16T05:57:56.033Z,72.80
2017-08-16T06:00:25.140Z,72.54
2017-08-16T06:02:53.819Z,72.39
2017-08-16T06:05:22.168Z,72.34
2017-08-16T06:07:50.574Z,72.69
2017-08-16T06:10:19.216Z,72.83
2017-08-16T06:12:47.601Z,73.14
2017-08-16T06:15:15.967Z,72.76
2017-08-16T06:17:45.056Z,72.35
2017-08-16T06:20:13.464Z,72.01
2017-08-16T06:22:41.854Z,71.79
2017-08-16T06:25:10.591Z,71.62
2017-08-16T06:27:38.984Z,71.52
2017-08-16T06:30:07.571Z,71.80
2017-08-16T06:32:36.517Z,71.51
2017-08-16T06:35:04.876Z,71.24
2017-08-16T06:37:34.023Z,71.52
2017-08-16T06:40:03.000Z,71.08
2017-08-16T06:42:31.364Z,71.11
2017-08-16T06:44:59.767Z,71.05
2017-08-16T06:47:28.463Z,70.22
2017-08-16T06:49:56.852Z,69.96
2017-08-16T06:52:25.235Z,69.62
2017-08-16T06:54:54.005Z,69.33
2017-08-16T06:57:22.399Z,69.46
2017-08-16T06:59:52.119Z,69.53
2017-08-16T07:02:21.207Z,69.40
2017-08-16T07:04:49.563Z,69.27
2017-08-16T07:07:17.941Z,69.43
2017-08-16T07:09:46.825Z,68.82
2017-08-16T07:12:15.197Z,68.79
2017-08-16T07:14:45.148Z,68.05
2017-08-16T07:17:13.827Z,67.46
2017-08-16T07:19:42.287Z,67.37
2017-08-16T07:22:10.636Z,65.83
2017-08-16T07:24:39.765Z,64.29
2017-08-16T07:27:08.155Z,63.03
2017-08-16T07:29:36.520Z,60.43
2017-08-16T07:32:05.425Z,59.00
2017-08-16T07:34:33.774Z,58.21
2017-08-16T07:37:02.883Z,57.45
2017-08-16T07:39:31.666Z,57.64
2017-08-16T07:42:00.014Z,57.14
2017-08-16T07:44:28.423Z,57.04
2017-08-16T07:46:57.351Z,56.77
2017-08-16T07:49:25.727Z,57.42
2017-08-16T07:51:54.105Z,57.58
2017-08-16T07:54:22.994Z,59.27
2017-08-16T07:56:51.366Z,58.86
2017-08-16T07:59:19.776Z,59.18
2017-08-16T08:01:48.515Z,57.35
2017-08-16T08:04:16.933Z,56.27
2017-08-16T08:06:45.389Z,56.54
2017-08-16T08:09:14.485Z,56.56
2017-08-16T08:11:42.871Z,56.17
2017-08-16T08:14:11.839Z,55.64
2017-08-16T08:16:41.617Z,57.38
2017-08-16T08:19:11.057Z,57.51
2017-08-16T08:21:39.588Z,58.32
2017-08-16T08:24:09.275Z,58.43
2017-08-16T08:26:38.287Z,58.17
2017-08-16T08:29:07.311Z,57.45
2017-08-16T08:31:36.376Z,57.27
2017-08-16T08:34:04.777Z,57.26
2017-08-16T08:36:33.142Z,56.75
2017-08-16T08:39:01.982Z,55.55
2017-08-16T08:41:32.309Z,55.70
2017-08-16T08:44:00.666Z,54.22
2017-08-16T08:46:29.488Z,52.13
2017-08-16T08:48:57.852Z,51.40
2017-08-16T08:51:27.080Z,50.63
2017-08-16T08:53:56.234Z,50.07
2017-08-16T08:56:24.574Z,49.97
2017-08-16T08:58:52.949Z,50.04
2017-08-16T09:01:21.740Z,50.80
2017-08-16T09:03:50.147Z,52.20
2017-08-16T09:06:19.295Z,52.78
2017-08-16T09:08:48.144Z,52.86
2017-08-16T09:11:16.555Z,52.01
2017-08-16T09:13:44.917Z,50.98
2017-08-16T09:16:14.783Z,49.02
2017-08-16T09:18:43.165Z,48.20
2017-08-16T09:21:11.577Z,48.13
2017-08-16T09:23:40.334Z,48.89
2017-08-16T09:26:08.706Z,48.72
2017-08-16T09:28:37.073Z,48.88
2017-08-16T09:31:05.874Z,49.35
2017-08-16T09:33:34.254Z,47.36
2017-08-16T09:36:02.620Z,46.23
2017-08-16T09:38:31.924Z,45.21
2017-08-16T09:41:00.431Z,44.85
2017-08-16T09:43:30.110Z,45.73
2017-08-16T09:45:59.943Z,46.01
2017-08-16T09:48:28.817Z,47.51
2017-08-16T09:50:57.282Z,49.14
2017-08-16T09:53:26.503Z,49.63
2017-08-16T09:55:57.066Z,50.99
2017-08-16T09:58:25.493Z,51.16
2017-08-16T10:00:54.583Z,50.92
2017-08-16T10:03:22.932Z,49.45
2017-08-16T10:05:51.459Z,47.60
2017-08-16T10:08:20.498Z,45.94
2017-08-16T10:10:48.921Z,44.74
2017-08-16T10:13:17.275Z,43.48
2017-08-16T10:15:46.809Z,42.75
2017-08-16T10:18:15.262Z,42.12
2017-08-16T10:20:43.999Z,41.68
2017-08-16T10:23:12.997Z,40.62
2017-08-16T10:25:42.184Z,40.46
2017-08-16T10:28:11.790Z,40.04
2017-08-16T10:30:40.733Z,41.01
2017-08-16T10:33:10.420Z,40.68
2017-08-16T10:35:39.375Z,40.85
2017-08-16T10:38:08.535Z,39.97
2017-08-16T10:40:39.302Z,39.27
2017-08-16T10:43:07.700Z,38.45
2017-08-16T10:45:37.604Z,38.56
2017-08-16T10:48:07.018Z,38.76
2017-08-16T10:50:36.930Z,38.22
2017-08-16T10:53:05.844Z,39.04
2017-08-16T10:55:34.540Z,39.89
2017-08-16T10:58:03.697Z,40.70
2017-08-16T11:00:32.422Z,42.49
2017-08-16T11:03:00.782Z,42.33
2017-08-16T11:05:30.895Z,42.71
2017-08-16T11:07:59.881Z,42.73
2017-08-16T11:10:28.255Z,40.94
2017-08-16T11:12:56.657Z,40.57
2017-08-16T11:15:27.380Z,38.88
2017-08-16T11:17:55.912Z,39.60
2017-08-16T11:20:24.437Z,39.10
2017-08-16T11:22:53.180Z,37.81
2017-08-16T11:25:21.525Z,37.38
2017-08-16T11:27:49.877Z,36.66
2017-08-16T11:30:18.766Z,36.59
2017-08-16T11:32:47.139Z,36.98
2017-08-16T11:35:15.569Z,36.58
2017-08-16T11:37:44.457Z,36.63
2017-08-16T11:40:12.792Z,34.97
2017-08-16T11:42:41.911Z,35.22
2017-08-16T11:45:10.598Z,33.20
2017-08-16T11:47:38.962Z,31.86
2017-08-16T11:50:07.596Z,32.11
2017-08-16T11:52:36.398Z,31.40
2017-08-16T11:55:04.765Z,30.59
2017-08-16T11:57:33.414Z,31.38
2017-08-16T12:00:02.557Z,30.48
2017-08-16T12:02:31.246Z,30.32
2017-08-16T12:05:01.416Z,29.87
2017-08-16T12:07:31.191Z,30.71
2017-08-16T12:09:59.545Z,29.88
2017-08-16T12:12:27.947Z,30.55
2017-08-16T12:14:57.995Z,32.36
2017-08-16T12:17:27.259Z,32.70
2017-08-16T12:19:55.994Z,31.50
2017-08-16T12:22:25.583Z,30.90
2017-08-16T12:24:54.218Z,30.90
2017-08-16T12:27:23.117Z,31.40
2017-08-16T12:29:51.984Z,31.87
2017-08-16T12:32:21.051Z,31.57
2017-08-16T12:34:50.810Z,32.50
2017-08-16T12:37:20.830Z,31.85
2017-08-16T12:39:49.846Z,30.76
2017-08-16T12:42:19.974Z,30.05
2017-08-16T12:44:49.376Z,29.97
2017-08-16T12:47:19.542Z,27.82
2017-08-16T12:49:50.381Z,28.37
2017-08-16T12:52:19.564Z,28.82
2017-08-16T12:54:49.373Z,29.15
2017-08-16T12:57:19.617Z,31.53
2017-08-16T12:59:48.559Z,32.64
2017-08-16T13:02:16.922Z,32.81
2017-08-16T13:04:45.287Z,33.03
2017-08-16T13:07:13.946Z,32.56
2017-08-16T13:09:42.324Z,31.88
2017-08-16T13:12:10.823Z,31.89
2017-08-16T13:14:39.846Z,31.33
2017-08-16T13:17:08.193Z,31.50
2017-08-16T13:19:36.565Z,32.06
2017-08-16T13:22:05.259Z,31.68
2017-08-16T13:24:33.625Z,30.93
2017-08-16T13:27:01.997Z,30.93
2017-08-16T13:29:30.662Z,31.42
2017-08-16T13:31:59.009Z,30.85
2017-08-16T13:34:27.359Z,30.36
2017-08-16T13:36:56.125Z,31.00
2017-08-16T13:39:24.487Z,31.42
2017-08-16T13:41:52.853Z,32.01
2017-08-16T13:44:21.799Z,31.52
2017-08-16T13:46:50.149Z,31.30
2017-08-16T13:49:18.593Z,31.29
2017-08-16T13:51:47.221Z,31.25
2017-08-16T13:54:15.601Z,31.23
2017-08-16T13:56:43.986Z,31.25
2017-08-16T13:59:12.878Z,30.92
2017-08-16T14:01:41.251Z,30.55
2017-08-16T14:04:09.594Z,31.20
2017-08-16T14:06:38.757Z,30.31
2017-08-16T14:09:07.099Z,30.86
2017-08-16T14:11:35.471Z,30.83
2017-08-16T14:14:04.612Z,30.55
2017-08-16T14:16:32.978Z,30.58
2017-08-16T14:19:01.358Z,30.54
2017-08-16T14:21:30.428Z,31.01
2017-08-16T14:23:58.821Z,30.40
2017-08-16T14:26:27.214Z,29.92
2017-08-16T14:28:56.225Z,30.00
2017-08-16T14:31:24.575Z,30.33
2017-08-16T14:33:52.975Z,30.11
2017-08-16T14:36:22.041Z,30.05
2017-08-16T14:38:50.429Z,30.29
2017-08-16T14:41:18.775Z,30.67
2017-08-16T14:43:47.481Z,30.78
2017-08-16T14:46:15.855Z,30.87
2017-08-16T14:48:44.242Z,30.72
2017-08-16T14:51:13.176Z,31.08
2017-08-16T14:53:41.561Z,31.19
2017-08-16T14:56:09.914Z,30.98
2017-08-16T14:58:38.702Z,30.74
2017-08-16T15:01:07.082Z,30.11
2017-08-16T15:03:35.482Z,30.85
2017-08-16T15:06:04.345Z,30.34
2017-08-16T15:08:32.683Z,30.28
2017-08-16T15:11:01.078Z,30.00
2017-08-16T15:13:30.006Z,30.25
2017-08-16T15:15:58.349Z,30.52
2017-08-16T15:18:27.494Z,31.40
2017-08-16T15:20:56.204Z,30.84
2017-08-16T15:23:24.584Z,31.29
2017-08-16T15:25:52.981Z,31.12
2017-08-16T15:28:21.824Z,30.68
2017-08-16T15:30:50.236Z,31.06
2017-08-16T15:33:18.592Z,31.08
2017-08-16T15:35:47.639Z,31.32
2017-08-16T15:38:16.023Z,31.23
2017-08-16T15:40:44.384Z,31.91
2017-08-16T15:43:14.061Z,32.47
2017-08-16T15:45:42.411Z,33.32
2017-08-16T15:48:10.801Z,33.45
2017-08-16T15:50:39.430Z,32.93
2017-08-16T15:53:07.799Z,33.51
2017-08-16T15:55:36.210Z,33.04
2017-08-16T15:58:05.260Z,32.99
2017-08-16T16:00:33.663Z,33.48
2017-08-16T16:03:02.073Z,33.57
2017-08-16T16:05:30.969Z,33.38
2017-08-16T16:07:59.302Z,33.59
2017-08-16T16:10:27.656Z,32.86
2017-08-16T16:12:56.446Z,33.86
2017-08-16T16:15:24.798Z,33.16
2017-08-16T16:17:53.199Z,32.25
2017-08-16T16:20:22.072Z,32.61
2017-08-16T16:22:50.473Z,32.31
2017-08-16T16:25:18.830Z,32.77
2017-08-16T16:27:47.474Z,31.98
2017-08-16T16:30:15.835Z,32.73
2017-08-16T16:32:44.188Z,32.95
2017-08-16T16:35:12.953Z,34.30
2017-08-16T16:37:41.311Z,34.36
2017-08-16T16:40:10.426Z,34.70
2017-08-16T16:42:39.206Z,34.87
2017-08-16T16:45:07.559Z,34.65
2017-08-16T16:47:35.948Z,34.74
2017-08-16T16:50:04.604Z,35.36
2017-08-16T16:52:32.948Z,34.99
2017-08-16T16:55:01.318Z,35.15
2017-08-16T16:57:30.133Z,35.33
2017-08-16T16:59:58.488Z,35.16
2017-08-16T17:02:26.858Z,35.09
2017-08-16T17:04:55.648Z,35.01
2017-08-16T17:07:24.058Z,35.24
2017-08-16T17:09:52.414Z,35.36
2017-08-16T17:12:21.040Z,35.39
2017-08-16T17:14:49.417Z,35.68
2017-08-16T17:17:17.778Z,36.29
2017-08-16T17:19:46.440Z,36.56
2017-08-16T17:22:14.814Z,37.25
2017-08-16T17:24:43.941Z,37.51
2017-08-16T17:27:13.148Z,38.02
2017-08-16T17:29:41.518Z,38.21
2017-08-16T17:32:09.885Z,38.53
2017-08-16T17:34:38.776Z,38.78
2017-08-16T17:37:07.134Z,39.11
2017-08-16T17:39:35.520Z,39.64
2017-08-16T17:42:04.449Z,39.46
2017-08-16T17:44:32.822Z,39.61
2017-08-16T17:47:01.200Z,39.80
2017-08-16T17:49:30.516Z,40.16
2017-08-16T17:51:58.885Z,40.09
2017-08-16T17:54:27.226Z,40.48
2017-08-16T17:56:56.098Z,41.23
2017-08-16T17:59:24.452Z,41.47
2017-08-16T18:01:52.795Z,42.33
2017-08-16T18:04:21.635Z,42.66
2017-08-16T18:06:49.966Z,43.21
2017-08-16T18:09:18.315Z,43.01
2017-08-16T18:11:47.102Z,43.33
2017-08-16T18:14:16.206Z,43.82
2017-08-16T18:16:45.375Z,44.03
2017-08-16T18:19:14.029Z,44.56
2017-08-16T18:21:42.378Z,44.26
2017-08-16T18:24:10.744Z,44.37
2017-08-16T18:26:40.400Z,44.84
2017-08-16T18:29:08.815Z,44.83
2017-08-16T18:31:37.222Z,45.25
2017-08-16T18:34:06.139Z,45.83
2017-08-16T18:36:34.527Z,46.62
2017-08-16T18:39:02.922Z,46.18
2017-08-16T18:41:31.538Z,46.51
2017-08-16T18:43:59.939Z,46.73
2017-08-16T18:46:28.337Z,47.07
2017-08-16T18:48:57.209Z,47.60
2017-08-16T18:51:25.627Z,48.05
2017-08-16T18:53:54.040Z,47.91
2017-08-16T18:56:22.990Z,48.38
2017-08-16T18:58:51.359Z,48.91
2017-08-16T19:01:20.982Z,49.49
2017-08-16T19:03:49.672Z,49.16
2017-08-16T19:06:18.077Z,49.20
2017-08-16T19:08:46.443Z,49.88
2017-08-16T19:11:15.114Z,50.17
2017-08-16T19:13:43.470Z,51.05
2017-08-16T19:16:11.863Z,51.27
2017-08-16T19:18:40.966Z,51.29
2017-08-16T19:21:09.352Z,51.95
2017-08-16T19:23:37.757Z,52.33
2017-08-16T19:26:06.826Z,52.42
2017-08-16T19:28:35.208Z,52.92
2017-08-16T19:31:03.564Z,53.93
2017-08-16T19:33:32.467Z,54.50
2017-08-16T19:36:00.824Z,55.17
2017-08-16T19:38:29.203Z,55.14
2017-08-16T19:40:58.099Z,56.35
2017-08-16T19:43:26.484Z,56.66
2017-08-16T19:45:54.856Z,57.77
2017-08-16T19:48:23.735Z,58.40
2017-08-16T19:50:52.084Z,59.59
2017-08-16T19:53:20.447Z,60.36
2017-08-16T19:55:49.277Z,60.45
2017-08-16T19:58:18.420Z,60.29
2017-08-16T20:00:46.796Z,60.50
2017-08-16T20:03:15.517Z,60.22
2017-08-16T20:05:43.873Z,60.99
2017-08-16T20:08:12.248Z,61.41
2017-08-16T20:10:40.927Z,61.51
2017-08-16T20:13:09.285Z,60.92
2017-08-16T20:15:37.677Z,60.67
2017-08-16T20:18:06.350Z,61.03
2017-08-16T20:20:34.730Z,61.27
2017-08-16T20:23:03.102Z,61.74
2017-08-16T20:25:31.881Z,62.06
2017-08-16T20:28:02.120Z,62.28
2017-08-16T20:30:30.462Z,62.91
2017-08-16T20:32:59.298Z,62.78
2017-08-16T20:35:27.673Z,63.76
2017-08-16T20:37:56.045Z,63.37
2017-08-16T20:40:25.543Z,63.24
2017-08-16T20:42:53.921Z,63.29
2017-08-16T20:45:23.060Z,63.42
2017-08-16T20:47:51.841Z,63.04
2017-08-16T20:50:20.241Z,63.62
2017-08-16T20:52:48.587Z,64.11
2017-08-16T20:55:17.260Z,64.96
2017-08-16T20:57:45.694Z,64.59
2017-08-16T21:00:14.044Z,64.61
2017-08-16T21:02:42.735Z,64.95
2017-08-16T21:05:11.113Z,65.33
2017-08-16T21:07:39.486Z,65.37
2017-08-16T21:10:08.373Z,66.11
2017-08-16T21:12:36.728Z,66.07
2017-08-16T21:15:05.109Z,66.58
2017-08-16T21:17:34.067Z,66.21
2017-08-16T21:20:02.464Z,66.19
2017-08-16T21:22:30.813Z,65.83
2017-08-16T21:24:59.734Z,66.33
2017-08-16T21:27:28.868Z,66.59
2017-08-16T21:29:57.278Z,66.83
2017-08-16T21:32:26.126Z,66.84
2017-08-16T21:34:54.557Z,67.24
2017-08-16T21:37:22.927Z,66.93
2017-08-16T21:39:51.590Z,67.04
2017-08-16T21:42:19.974Z,66.92
2017-08-16T21:44:48.384Z,66.90
2017-08-16T21:47:17.250Z,67.32
2017-08-16T21:49:45.649Z,67.73
2017-08-16T21:52:14.043Z,67.26
2017-08-16T21:54:42.933Z,68.40
2017-08-16T21:57:11.461Z,68.50
2017-08-16T21:59:39.846Z,68.27
2017-08-16T22:02:08.562Z,68.48
2017-08-16T22:04:36.934Z,68.60
2017-08-16T22:07:05.300Z,68.72
2017-08-16T22:09:34.055Z,69.02
2017-08-16T22:12:03.185Z,69.11
2017-08-16T22:14:31.543Z,68.88
2017-08-16T22:17:00.655Z,68.42
2017-08-16T22:19:29.940Z,68.96
2017-08-16T22:21:58.317Z,69.06
2017-08-16T22:24:27.005Z,69.58
2017-08-16T22:26:55.623Z,70.31
2017-08-16T22:29:24.032Z,70.76
2017-08-16T22:31:53.063Z,70.98
2017-08-16T22:34:21.503Z,71.00
2017-08-16T22:36:49.876Z,71.17
2017-08-16T22:39:18.861Z,71.04
2017-08-16T22:41:47.259Z,71.64
2017-08-16T22:44:15.633Z,72.17
2017-08-16T22:46:45.078Z,71.55
2017-08-16T22:49:13.483Z,71.38
2017-08-16T22:51:41.853Z,70.87
2017-08-16T22:54:10.501Z,70.48
2017-08-16T22:56:38.900Z,70.23
2017-08-16T22:59:08.069Z,70.08
2017-08-16T23:01:37.119Z,70.57
2017-08-16T23:04:05.504Z,70.47
2017-08-16T23:06:33.857Z,70.78
2017-08-16T23:09:03.394Z,71.41
2017-08-16T23:11:32.417Z,71.77
2017-08-16T23:14:01.673Z,72.03
2017-08-16T23:16:30.446Z,71.90
2017-08-16T23:18:58.798Z,71.58
2017-08-16T23:21:29.667Z,72.18
2017-08-16T23:23:59.586Z,72.98
2017-08-16T23:26:28.140Z,72.90
2017-08-16T23:28:56.500Z,72.77
2017-08-16T23:31:25.338Z,71.77
2017-08-16T23:33:53.714Z,71.47
2017-08-16T23:36:22.166Z,71.02
2017-08-16T23:38:51.691Z,71.25
2017-08-16T23:41:20.039Z,71.51
2017-08-16T23:43:48.452Z,71.99
2017-08-16T23:46:17.442Z,71.46
2017-08-16T23:48:45.793Z,71.14
2017-08-16T23:51:14.202Z,71.18
2017-08-16T23:53:43.120Z,71.28
2017-08-16T23:56:11.544Z,71.72
2017-08-16T23:58:40.083Z,70.84
